Time;durP1;ratioP1;P1;durP2;ratioP2;P2;SDS_P1;SDS_P2;PMS_P1;PMS_P2;Temp;Humidity;BMP_temperature;BMP_pressure;BME280_temperature;BME280_humidity;BME280_pressure;Samples;Min_cycle;Max_cycle;Signal;HPM_P1;HPM_P2
2024/01/29 00:00:57;;;;;;;;;;;-0.70;99.90;;;;;;5029067;28;19983;-73
2024/01/29 00:03:23;;;;;;;;;;;-0.70;99.90;;;;;;5027036;28;19921;-73
2024/01/29 00:05:50;;;;;;;;;;;-0.80;99.90;;;;;;5030064;28;19921;-73
2024/01/29 00:08:18;;;;;;;;;;;-0.80;99.90;;;;;;5033876;28;19960;-73
2024/01/29 00:10:44;;;;;;;;;;;-0.80;99.90;;;;;;5025635;28;19967;-73
2024/01/29 00:13:11;;;;;;;;;;;-0.80;99.90;;;;;;5021531;28;19965;-73
2024/01/29 00:15:38;;;;;;;;;;;-0.80;99.90;;;;;;5030158;28;20157;-73
2024/01/29 00:18:05;;;;;;;;;;;-0.90;99.90;;;;;;5034151;28;19928;-73
2024/01/29 00:20:32;;;;;;;;;;;-0.80;99.90;;;;;;5026334;28;19921;-73
2024/01/29 00:22:58;;;;;;;;;;;-0.90;99.90;;;;;;5036122;28;19988;-73
2024/01/29 00:25:26;;;;;;;;;;;-0.90;99.90;;;;;;5029232;28;19984;-73
2024/01/29 00:27:53;;;;;;;;;;;-0.90;99.90;;;;;;5028622;28;19921;-73
2024/01/29 00:30:20;;;;;;;;;;;-1.00;99.90;;;;;;5034848;28;20001;-73
2024/01/29 00:32:46;;;;;;;;;;;-1.00;99.90;;;;;;5025973;28;20138;-73
2024/01/29 00:35:13;;;;;;;;;;;-1.00;99.90;;;;;;5028278;28;19961;-73
2024/01/29 00:37:40;;;;;;;;;;;-1.00;99.90;;;;;;5030393;28;19951;-73
2024/01/29 00:40:08;;;;;;;;;;;-1.10;99.90;;;;;;5026092;28;19957;-73
2024/01/29 00:42:35;;;;;;;;;;;-1.10;99.90;;;;;;5028724;28;19921;-73
2024/01/29 00:45:03;;;;;;;;;;;-1.10;99.90;;;;;;5026905;28;19968;-73
2024/01/29 00:47:30;;;;;;;;;;;-1.10;99.90;;;;;;5033705;28;19988;-73
2024/01/29 00:49:57;;;;;;;;;;;-1.10;99.90;;;;;;5029213;28;19921;-72
2024/01/29 00:52:23;;;;;;;;;;;-1.10;99.90;;;;;;5027869;28;19996;-72
2024/01/29 00:54:50;;;;;;;;;;;-1.10;99.90;;;;;;5036685;28;19992;-72
2024/01/29 00:57:16;;;;;;;;;;;-1.20;99.90;;;;;;5028053;28;19921;-73
2024/01/29 00:59:44;;;;;;;;;;;-1.20;99.90;;;;;;5026530;28;20004;-72
2024/01/29 01:02:11;;;;;;;;;;;-1.20;99.90;;;;;;5034266;28;19952;-72
2024/01/29 01:04:38;;;;;;;;;;;-1.20;99.90;;;;;;5029183;28;20230;-73
2024/01/29 01:07:05;;;;;;;;;;;-1.20;99.90;;;;;;5026413;28;20226;-72
2024/01/29 01:09:32;;;;;;;;;;;-1.20;99.90;;;;;;5028559;28;19988;-73
2024/01/29 01:11:58;;;;;;;;;;;-1.20;99.90;;;;;;5035951;28;19921;-73
2024/01/29 01:14:25;;;;;;;;;;;-1.20;99.90;;;;;;5026438;28;19984;-72
2024/01/29 01:16:53;;;;;;;;;;;-1.20;99.90;;;;;;5023913;28;20233;-72
2024/01/29 01:19:19;;;;;;;;;;;-1.20;99.90;;;;;;5034087;28;19928;-73
2024/01/29 01:21:47;;;;;;;;;;;-1.20;99.90;;;;;;5026885;28;19929;-72
2024/01/29 01:24:14;;;;;;;;;;;-1.10;99.90;;;;;;5031359;28;20178;-72
2024/01/29 01:26:40;;;;;;;;;;;-1.10;99.90;;;;;;5027314;28;19960;-72
2024/01/29 01:29:07;;;;;;;;;;;-1.10;99.90;;;;;;5026329;28;19921;-72
2024/01/29 01:31:33;;;;;;;;;;;-1.10;99.90;;;;;;5026879;28;19921;-72
2024/01/29 01:34:01;;;;;;;;;;;-1.10;99.90;;;;;;5028351;28;20003;-73
2024/01/29 01:36:28;;;;;;;;;;;-1.10;99.90;;;;;;5025918;28;19921;-72
2024/01/29 01:38:55;;;;;;;;;;;-1.10;99.90;;;;;;5026079;28;19963;-73
2024/01/29 01:41:22;;;;;;;;;;;-1.10;99.90;;;;;;5025314;28;19922;-73
2024/01/29 01:43:48;;;;;;;;;;;-1.20;99.90;;;;;;5024154;28;19957;-72
2024/01/29 01:46:20;;;;;;;;;;;-1.10;99.90;;;;;;5022450;28;19993;-72
2024/01/29 01:48:47;;;;;;;;;;;-1.10;99.90;;;;;;5029257;28;19928;-72
2024/01/29 01:51:15;;;;;;;;;;;-1.10;99.90;;;;;;5033604;28;19977;-72
2024/01/29 01:53:42;;;;;;;;;;;-1.00;99.90;;;;;;5027885;28;19980;-72
2024/01/29 01:56:09;;;;;;;;;;;-1.10;99.90;;;;;;5030331;28;20169;-72
2024/01/29 01:58:35;;;;;;;;;;;-1.10;99.90;;;;;;5028269;28;19952;-72
2024/01/29 02:01:02;;;;;;;;;;;-1.00;99.90;;;;;;5025681;28;20645;-73
2024/01/29 02:03:29;;;;;;;;;;;-1.00;99.90;;;;;;5032000;28;20187;-73
2024/01/29 02:05:56;;;;;;;;;;;-1.00;99.90;;;;;;5025580;28;19932;-72
2024/01/29 02:08:24;;;;;;;;;;;-1.10;99.90;;;;;;5032042;28;19921;-73
2024/01/29 02:10:51;;;;;;;;;;;-1.10;99.90;;;;;;5028896;28;20234;-73
2024/01/29 02:13:17;;;;;;;;;;;-1.10;99.90;;;;;;5030662;28;19989;-72
2024/01/29 02:15:44;;;;;;;;;;;-1.20;99.90;;;;;;5027691;28;19960;-73
2024/01/29 02:18:11;;;;;;;;;;;-1.20;99.90;;;;;;5027054;28;20117;-72
2024/01/29 02:20:37;;;;;;;;;;;-1.20;99.90;;;;;;5026155;28;19921;-73
2024/01/29 02:23:05;;;;;;;;;;;-1.20;99.90;;;;;;5027066;28;19960;-72
2024/01/29 02:25:33;;;;;;;;;;;-1.20;99.90;;;;;;5032662;28;19952;-73
2024/01/29 02:28:00;;;;;;;;;;;-1.20;99.90;;;;;;5027924;28;19964;-72
2024/01/29 02:30:26;;;;;;;;;;;-1.20;99.90;;;;;;5025196;28;20163;-72
2024/01/29 02:32:53;;;;;;;;;;;-1.30;99.90;;;;;;5027311;28;20086;-72
2024/01/29 02:35:20;;;;;;;;;;;-1.30;99.90;;;;;;5025312;28;20088;-73
2024/01/29 02:37:46;;;;;;;;;;;-1.30;99.90;;;;;;5025860;28;19929;-73
2024/01/29 02:40:14;;;;;;;;;;;-1.40;99.90;;;;;;5026518;28;19984;-72
2024/01/29 02:42:41;;;;;;;;;;;-1.30;99.90;;;;;;5024226;28;20010;-72
2024/01/29 02:45:08;;;;;;;;;;;-1.30;99.90;;;;;;5026357;28;19957;-72
2024/01/29 02:47:35;;;;;;;;;;;-1.40;99.90;;;;;;5026102;28;19922;-72
2024/01/29 02:50:01;;;;;;;;;;;-1.40;99.90;;;;;;5026614;28;19927;-72
2024/01/29 02:52:28;;;;;;;;;;;-1.40;99.90;;;;;;5027488;28;19960;-73
2024/01/29 02:54:54;;;;;;;;;;;-1.40;99.90;;;;;;5032831;28;19921;-72
2024/01/29 02:57:24;;;;;;;;;;;-1.50;99.90;;;;;;5026750;28;19985;-72
2024/01/29 02:59:51;;;;;;;;;;;-1.40;99.90;;;;;;5020379;28;19944;-73
2024/01/29 03:02:17;;;;;;;;;;;-1.50;99.90;;;;;;5030429;28;20303;-72
2024/01/29 03:04:44;;;;;;;;;;;-1.50;99.90;;;;;;5030709;28;19928;-73
2024/01/29 03:07:11;;;;;;;;;;;-1.50;99.90;;;;;;5022270;28;19921;-72
2024/01/29 03:09:38;;;;;;;;;;;-1.50;99.90;;;;;;5023199;28;19921;-72
2024/01/29 03:12:04;;;;;;;;;;;-1.50;99.90;;;;;;5025397;28;19921;-72
2024/01/29 03:14:32;;;;;;;;;;;-1.50;99.90;;;;;;5023974;28;19953;-73
2024/01/29 03:16:59;;;;;;;;;;;-1.60;99.90;;;;;;5028220;28;19943;-72
2024/01/29 03:19:26;;;;;;;;;;;-1.60;99.90;;;;;;5024890;28;19928;-72
2024/01/29 03:21:52;;;;;;;;;;;-1.60;99.90;;;;;;5026503;28;19928;-72
2024/01/29 03:24:19;;;;;;;;;;;-1.60;99.90;;;;;;5032774;28;19988;-72
2024/01/29 03:26:45;;;;;;;;;;;-1.60;99.90;;;;;;5032910;28;19928;-72
2024/01/29 03:29:12;;;;;;;;;;;-1.70;99.90;;;;;;5036223;28;19921;-72
2024/01/29 03:31:40;;;;;;;;;;;-1.70;99.90;;;;;;5028764;28;19960;-72
2024/01/29 03:34:07;;;;;;;;;;;-1.70;99.90;;;;;;5028325;28;19953;-72
2024/01/29 03:36:33;;;;;;;;;;;-1.70;99.90;;;;;;5035872;28;19984;-72
2024/01/29 03:39:00;;;;;;;;;;;-1.70;99.90;;;;;;5032938;28;19921;-72
2024/01/29 03:41:27;;;;;;;;;;;-1.70;99.90;;;;;;5031609;28;19976;-72
2024/01/29 03:43:53;;;;;;;;;;;-1.60;99.90;;;;;;5030078;28;19981;-73
2024/01/29 03:46:20;;;;;;;;;;;-1.60;99.90;;;;;;5036326;28;19985;-72
2024/01/29 03:48:48;;;;;;;;;;;-1.60;99.90;;;;;;5036890;28;19957;-72
2024/01/29 03:51:14;;;;;;;;;;;-1.60;99.90;;;;;;5036395;28;19956;-73
2024/01/29 03:53:41;;;;;;;;;;;-1.60;99.90;;;;;;5032258;28;19968;-72
2024/01/29 03:56:08;;;;;;;;;;;-1.60;99.90;;;;;;5030376;28;19921;-72
2024/01/29 03:58:34;;;;;;;;;;;-1.60;99.90;;;;;;5035353;28;19921;-73
2024/01/29 04:01:01;;;;;;;;;;;-1.70;99.90;;;;;;5030538;28;19935;-73
2024/01/29 04:03:28;;;;;;;;;;;-1.70;99.90;;;;;;5036414;28;20115;-72
2024/01/29 04:05:56;;;;;;;;;;;-1.70;99.90;;;;;;5029739;28;19952;-73
2024/01/29 04:08:22;;;;;;;;;;;-1.70;99.90;;;;;;5030556;28;19944;-73
2024/01/29 04:10:49;;;;;;;;;;;-1.70;99.90;;;;;;5036183;28;19927;-72
2024/01/29 04:13:15;;;;;;;;;;;-1.70;99.90;;;;;;5026604;28;19929;-72
2024/01/29 04:15:42;;;;;;;;;;;-1.70;99.90;;;;;;5030318;28;19920;-72
2024/01/29 04:18:08;;;;;;;;;;;-1.70;99.90;;;;;;5029567;28;19960;-72
2024/01/29 04:20:35;;;;;;;;;;;-1.70;99.90;;;;;;5027905;28;19976;-72
2024/01/29 04:23:03;;;;;;;;;;;-1.80;99.90;;;;;;5044172;28;20169;-72
2024/01/29 04:25:30;;;;;;;;;;;-1.70;99.90;;;;;;5038237;28;19944;-72
2024/01/29 04:27:56;;;;;;;;;;;-1.80;99.90;;;;;;5028826;28;19921;-72
2024/01/29 04:30:23;;;;;;;;;;;-1.80;99.90;;;;;;5022226;28;19988;-72
2024/01/29 04:32:50;;;;;;;;;;;-1.80;99.90;;;;;;5026389;28;19928;-73
2024/01/29 04:35:16;;;;;;;;;;;-1.80;99.90;;;;;;5028843;28;19980;-72
2024/01/29 04:37:43;;;;;;;;;;;-1.80;99.90;;;;;;5028407;28;20159;-72
2024/01/29 04:40:11;;;;;;;;;;;-1.80;99.90;;;;;;5032466;28;19922;-73
2024/01/29 04:42:38;;;;;;;;;;;-1.80;99.90;;;;;;5026999;28;19964;-73
2024/01/29 04:45:05;;;;;;;;;;;-1.80;99.90;;;;;;5026074;28;20297;-72
2024/01/29 04:47:32;;;;;;;;;;;-1.80;99.90;;;;;;5028814;28;19921;-73
2024/01/29 04:49:59;;;;;;;;;;;-1.80;99.90;;;;;;5028811;28;19963;-72
2024/01/29 04:52:25;;;;;;;;;;;-1.80;99.90;;;;;;5031620;28;19921;-72
2024/01/29 04:54:52;;;;;;;;;;;-1.90;99.90;;;;;;5026755;28;19921;-73
2024/01/29 04:57:22;;;;;;;;;;;-1.90;99.90;;;;;;5035400;28;19921;-72
2024/01/29 04:59:49;;;;;;;;;;;-1.80;99.90;;;;;;5034840;28;20150;-72
2024/01/29 05:02:16;;;;;;;;;;;-1.90;99.90;;;;;;5028566;28;19928;-72
2024/01/29 05:04:43;;;;;;;;;;;-1.90;99.90;;;;;;5027054;28;19921;-72
2024/01/29 05:07:09;;;;;;;;;;;-1.90;99.90;;;;;;5026676;28;20168;-72
2024/01/29 05:09:36;;;;;;;;;;;-1.90;99.90;;;;;;5026571;28;19992;-72
2024/01/29 05:12:03;;;;;;;;;;;-1.80;99.90;;;;;;5028477;28;20114;-72
2024/01/29 05:14:31;;;;;;;;;;;-1.80;99.90;;;;;;5027927;28;19981;-72
2024/01/29 05:16:57;;;;;;;;;;;-1.80;99.90;;;;;;5030326;28;20269;-72
2024/01/29 05:19:24;;;;;;;;;;;-1.80;99.90;;;;;;5028388;28;19921;-72
2024/01/29 05:21:51;;;;;;;;;;;-1.80;99.90;;;;;;5028292;28;19921;-72
2024/01/29 05:24:17;;;;;;;;;;;-1.70;99.90;;;;;;5028192;28;20095;-72
2024/01/29 05:26:44;;;;;;;;;;;-1.80;99.90;;;;;;5034964;28;19922;-72
2024/01/29 05:29:11;;;;;;;;;;;-1.70;99.90;;;;;;5025135;28;19922;-72
2024/01/29 05:31:39;;;;;;;;;;;-1.80;99.90;;;;;;5029389;28;19957;-72
2024/01/29 05:34:05;;;;;;;;;;;-1.80;99.90;;;;;;5028704;28;20177;-72
2024/01/29 05:36:32;;;;;;;;;;;-1.80;99.90;;;;;;5034960;28;20214;-73
2024/01/29 05:38:59;;;;;;;;;;;-1.80;99.90;;;;;;5028297;28;19921;-71
2024/01/29 05:41:25;;;;;;;;;;;-1.80;99.90;;;;;;5029061;28;19921;-72
2024/01/29 05:43:52;;;;;;;;;;;-1.90;99.90;;;;;;5030695;28;20257;-71
2024/01/29 05:46:18;;;;;;;;;;;-1.90;99.90;;;;;;5029174;28;19984;-74
2024/01/29 05:49:02;;;;;;;;;;;-1.90;99.90;;;;;;5028312;28;19953;-71
2024/01/29 05:51:30;;;;;;;;;;;-1.80;99.90;;;;;;5028111;28;19993;-72
2024/01/29 05:53:57;;;;;;;;;;;-0.80;99.90;;;;;;5033801;28;20241;-72
2024/01/29 05:56:24;;;;;;;;;;;-1.80;99.90;;;;;;5028016;28;19988;-73
2024/01/29 05:58:50;;;;;;;;;;;-1.80;99.90;;;;;;5024871;28;19953;-72
2024/01/29 06:01:17;;;;;;;;;;;-1.80;99.90;;;;;;5030432;28;19952;-72
2024/01/29 06:03:44;;;;;;;;;;;-1.80;99.90;;;;;;5036334;28;19921;-70
2024/01/29 06:06:10;;;;;;;;;;;-1.80;99.90;;;;;;5025262;28;19921;-71
2024/01/29 06:08:38;;;;;;;;;;;-1.80;99.90;;;;;;5026902;28;19921;-70
2024/01/29 06:11:05;;;;;;;;;;;-1.80;99.90;;;;;;5026052;28;19952;-71
2024/01/29 06:13:31;;;;;;;;;;;-1.80;99.90;;;;;;5026004;28;19921;-71
2024/01/29 06:15:58;;;;;;;;;;;-1.90;99.90;;;;;;5030526;28;19927;-70
2024/01/29 06:18:25;;;;;;;;;;;-1.90;99.90;;;;;;5035158;28;19988;-69
2024/01/29 06:20:51;;;;;;;;;;;-1.90;99.90;;;;;;5032112;28;19921;-70
2024/01/29 06:23:18;;;;;;;;;;;-1.80;99.90;;;;;;4992686;28;19997;-70
2024/01/29 06:25:46;;;;;;;;;;;-1.90;99.90;;;;;;5003762;28;19921;-70
2024/01/29 06:28:12;;;;;;;;;;;-1.80;99.90;;;;;;5019315;28;19992;-71
2024/01/29 06:30:39;;;;;;;;;;;-1.80;99.90;;;;;;5013172;28;19988;-70
2024/01/29 06:33:05;;;;;;;;;;;-1.80;99.90;;;;;;5019900;28;19922;-70
2024/01/29 06:35:32;;;;;;;;;;;-1.80;99.90;;;;;;5023639;28;19921;-70
2024/01/29 06:37:59;;;;;;;;;;;-1.90;99.90;;;;;;5018717;28;19988;-72
2024/01/29 06:40:27;;;;;;;;;;;-1.90;99.90;;;;;;5023968;28;19984;-72
2024/01/29 06:42:56;;;;;;;;;;;-1.90;99.90;;;;;;5025560;28;19956;-74
2024/01/29 06:45:22;;;;;;;;;;;-1.90;99.90;;;;;;5032439;28;19984;-70
2024/01/29 06:47:49;;;;;;;;;;;-1.90;99.90;;;;;;5027392;28;19933;-71
2024/01/29 06:50:16;;;;;;;;;;;-1.90;99.90;;;;;;5026714;28;19981;-72
2024/01/29 06:52:42;;;;;;;;;;;-1.90;99.90;;;;;;5024758;28;20538;-70
2024/01/29 06:55:09;;;;;;;;;;;-1.80;99.90;;;;;;5025336;28;19949;-70
2024/01/29 06:57:36;;;;;;;;;;;-1.80;99.90;;;;;;5024685;28;20257;-72
2024/01/29 07:00:05;;;;;;;;;;;-1.80;99.90;;;;;;5029224;28;19952;-73
2024/01/29 07:02:31;;;;;;;;;;;-1.80;99.90;;;;;;5027634;28;19921;-70
2024/01/29 07:04:58;;;;;;;;;;;-1.80;99.90;;;;;;5036311;28;19960;-71
2024/01/29 07:07:25;;;;;;;;;;;-1.80;99.90;;;;;;5038290;28;19953;-70
2024/01/29 07:09:54;;;;;;;;;;;-1.80;99.90;;;;;;5033595;28;19980;-72
2024/01/29 07:12:20;;;;;;;;;;;-1.80;99.90;;;;;;5030892;28;19953;-70
2024/01/29 07:14:47;;;;;;;;;;;-1.80;99.90;;;;;;5028889;28;19993;-73
2024/01/29 07:17:15;;;;;;;;;;;-1.80;99.90;;;;;;5034098;28;20166;-72
2024/01/29 07:19:42;;;;;;;;;;;-1.80;99.90;;;;;;5033069;28;19948;-71
2024/01/29 07:22:14;;;;;;;;;;;-1.80;99.90;;;;;;5028683;28;19975;-70
2024/01/29 07:24:40;;;;;;;;;;;-1.80;99.90;;;;;;5031038;28;19961;-72
2024/01/29 07:27:07;;;;;;;;;;;-1.80;99.90;;;;;;5030715;28;20186;-70
2024/01/29 07:29:34;;;;;;;;;;;-1.80;99.90;;;;;;5031765;28;19988;-72
2024/01/29 07:32:00;;;;;;;;;;;-1.70;99.90;;;;;;5036922;28;19921;-71
2024/01/29 07:34:28;;;;;;;;;;;-1.70;99.90;;;;;;5030442;28;19921;-72
2024/01/29 07:36:55;;;;;;;;;;;-1.70;99.90;;;;;;5037023;28;19957;-70
2024/01/29 07:39:22;;;;;;;;;;;-1.70;99.90;;;;;;5027508;28;19921;-74
2024/01/29 07:41:48;;;;;;;;;;;-1.60;99.90;;;;;;5029933;28;19930;-72
2024/01/29 07:44:16;;;;;;;;;;;-1.60;99.90;;;;;;5025409;28;19927;-70
2024/01/29 07:46:42;;;;;;;;;;;-1.50;99.90;;;;;;5027627;28;20126;-70
2024/01/29 07:49:10;;;;;;;;;;;-1.50;99.90;;;;;;5032938;28;19995;-70
2024/01/29 07:51:41;;;;;;;;;;;-1.40;99.90;;;;;;5029611;28;20309;-70
2024/01/29 07:54:07;;;;;;;;;;;-1.40;99.90;;;;;;5029513;28;20270;-73
2024/01/29 07:56:35;;;;;;;;;;;-1.40;99.90;;;;;;5030912;28;19967;-70
2024/01/29 07:59:02;;;;;;;;;;;-1.40;99.90;;;;;;5026951;28;20215;-72
2024/01/29 08:01:29;;;;;;;;;;;-1.40;99.90;;;;;;5027767;28;19960;-70
2024/01/29 08:03:55;;;;;;;;;;;-1.40;99.90;;;;;;5032308;28;19925;-70
2024/01/29 08:06:22;;;;;;;;;;;-1.40;99.90;;;;;;5029614;28;19921;-70
2024/01/29 08:08:50;;;;;;;;;;;-1.40;99.90;;;;;;5028953;28;19988;-71
2024/01/29 08:11:16;;;;;;;;;;;-1.40;99.90;;;;;;5023247;28;19921;-70
2024/01/29 08:13:43;;;;;;;;;;;-1.30;99.90;;;;;;5030365;28;19929;-72
2024/01/29 08:16:10;;;;;;;;;;;-1.30;99.90;;;;;;5029060;28;19992;-72
2024/01/29 08:18:36;;;;;;;;;;;-1.20;99.90;;;;;;5033018;28;19921;-72
2024/01/29 08:21:03;;;;;;;;;;;-1.10;99.90;;;;;;5026590;28;19922;-72
2024/01/29 08:23:30;;;;;;;;;;;-1.20;99.90;;;;;;5037140;28;20214;-75
2024/01/29 08:25:58;;;;;;;;;;;-1.10;99.90;;;;;;5030388;28;19987;-74
2024/01/29 08:28:24;;;;;;;;;;;-1.10;99.90;;;;;;5030286;28;19953;-74
2024/01/29 08:30:51;;;;;;;;;;;-1.00;99.90;;;;;;5030423;28;19921;-74
2024/01/29 08:33:18;;;;;;;;;;;-0.90;99.90;;;;;;5036061;28;19989;-76
2024/01/29 08:35:45;;;;;;;;;;;-0.90;99.90;;;;;;5038677;28;19980;-76
2024/01/29 08:38:11;;;;;;;;;;;-0.80;99.90;;;;;;5040647;28;20207;-75
2024/01/29 08:40:39;;;;;;;;;;;-0.80;99.90;;;;;;5037732;28;19956;-75
2024/01/29 08:43:07;;;;;;;;;;;-0.70;99.90;;;;;;5036550;28;19921;-75
2024/01/29 08:45:34;;;;;;;;;;;-0.70;99.90;;;;;;5037046;28;20230;-75
2024/01/29 08:48:03;;;;;;;;;;;-0.60;99.90;;;;;;5037994;28;19984;-75
2024/01/29 08:50:30;;;;;;;;;;;-0.60;99.90;;;;;;5025435;28;19926;-73
2024/01/29 08:52:56;;;;;;;;;;;-0.50;99.90;;;;;;5021184;28;19921;-73
2024/01/29 08:55:23;;;;;;;;;;;-0.40;99.90;;;;;;5024551;28;19928;-73
2024/01/29 08:57:50;;;;;;;;;;;-0.40;99.90;;;;;;5025465;28;19921;-73
2024/01/29 09:00:19;;;;;;;;;;;-0.30;99.90;;;;;;5031528;28;19922;-75
2024/01/29 09:02:46;;;;;;;;;;;-0.20;99.90;;;;;;5027604;28;19968;-76
2024/01/29 09:05:13;;;;;;;;;;;-0.10;99.90;;;;;;5028834;28;19922;-74
2024/01/29 09:07:39;;;;;;;;;;;0.00;99.90;;;;;;5028129;28;20256;-76
2024/01/29 09:10:07;;;;;;;;;;;0.00;99.90;;;;;;5027086;28;20277;-76
2024/01/29 09:12:32;;;;;;;;;;;0.10;99.90;;;;;;5027402;28;19985;-76
2024/01/29 09:15:01;;;;;;;;;;;0.20;99.90;;;;;;5028032;28;19929;-74
2024/01/29 09:17:29;;;;;;;;;;;0.30;99.90;;;;;;5029182;28;19928;-75
2024/01/29 09:19:56;;;;;;;;;;;0.30;99.90;;;;;;5029616;28;19925;-76
2024/01/29 09:22:22;;;;;;;;;;;0.40;99.90;;;;;;5028887;28;19921;-74
2024/01/29 09:24:49;;;;;;;;;;;0.50;99.90;;;;;;5022432;28;19957;-74
2024/01/29 09:27:16;;;;;;;;;;;0.60;99.90;;;;;;5034713;28;19921;-74
2024/01/29 09:29:43;;;;;;;;;;;0.80;99.90;;;;;;5028279;28;22290;-76
2024/01/29 09:32:10;;;;;;;;;;;0.90;99.90;;;;;;5028625;28;19927;-76
2024/01/29 09:34:38;;;;;;;;;;;1.10;99.90;;;;;;5029306;28;19968;-74
2024/01/29 09:37:05;;;;;;;;;;;1.20;99.90;;;;;;5030650;28;19957;-74
2024/01/29 09:39:31;;;;;;;;;;;1.30;99.90;;;;;;5029044;28;19984;-73
2024/01/29 09:42:02;;;;;;;;;;;1.40;99.90;;;;;;5028461;28;19952;-72
2024/01/29 09:44:29;;;;;;;;;;;1.50;99.90;;;;;;5032085;28;20215;-72
2024/01/29 09:46:56;;;;;;;;;;;1.60;99.90;;;;;;5028582;28;19984;-73
2024/01/29 09:49:23;;;;;;;;;;;1.60;99.90;;;;;;5035306;28;19960;-72
2024/01/29 09:51:52;;;;;;;;;;;1.70;99.90;;;;;;5026964;28;20222;-72
2024/01/29 09:54:19;;;;;;;;;;;1.80;99.90;;;;;;5024770;28;19992;-72
2024/01/29 09:56:45;;;;;;;;;;;1.90;99.90;;;;;;5030806;28;19921;-72
2024/01/29 09:59:12;;;;;;;;;;;2.10;99.90;;;;;;5025833;28;19937;-72
2024/01/29 10:01:39;;;;;;;;;;;2.20;99.90;;;;;;5029749;28;19936;-72
2024/01/29 10:04:06;;;;;;;;;;;2.30;99.90;;;;;;5029604;28;19956;-72
2024/01/29 10:06:33;;;;;;;;;;;2.50;99.90;;;;;;5028812;28;20175;-72
2024/01/29 10:09:01;;;;;;;;;;;2.60;99.90;;;;;;5028134;28;19963;-72
2024/01/29 10:11:27;;;;;;;;;;;2.80;99.90;;;;;;5027763;28;19985;-72
2024/01/29 10:13:58;;;;;;;;;;;2.90;99.90;;;;;;5027915;28;19976;-72
2024/01/29 10:16:25;;;;;;;;;;;3.10;99.90;;;;;;5028415;28;19980;-72
2024/01/29 10:18:56;;;;;;;;;;;3.20;99.90;;;;;;5031437;28;20118;-73
2024/01/29 10:21:22;;;;;;;;;;;3.30;99.90;;;;;;5025239;28;19925;-72
2024/01/29 10:23:54;;;;;;;;;;;3.40;99.90;;;;;;5028407;28;19984;-74
2024/01/29 10:26:22;;;;;;;;;;;3.50;99.90;;;;;;5024617;28;20006;-72
2024/01/29 10:28:59;;;;;;;;;;;3.50;99.90;;;;;;5033856;28;20143;-72
2024/01/29 10:31:25;;;;;;;;;;;3.70;99.90;;;;;;5024980;28;19981;-72
2024/01/29 10:33:52;;;;;;;;;;;3.80;99.90;;;;;;5024486;28;19997;-72
2024/01/29 10:36:19;;;;;;;;;;;3.90;99.90;;;;;;5026613;28;20237;-72
2024/01/29 10:38:47;;;;;;;;;;;4.10;99.90;;;;;;5036872;28;19929;-72
2024/01/29 10:41:16;;;;;;;;;;;4.20;99.90;;;;;;5025943;28;19936;-73
2024/01/29 10:43:47;;;;;;;;;;;4.40;99.90;;;;;;5033452;28;19921;-70
2024/01/29 10:46:16;;;;;;;;;;;4.50;99.90;;;;;;5029569;28;20096;-72
2024/01/29 10:48:44;;;;;;;;;;;4.70;99.90;;;;;;5033878;28;19964;-72
2024/01/29 10:51:11;;;;;;;;;;;4.90;99.90;;;;;;5035741;28;19957;-72
2024/01/29 10:53:39;;;;;;;;;;;5.00;99.90;;;;;;5035250;28;19992;-72
2024/01/29 10:56:06;;;;;;;;;;;5.20;99.90;;;;;;5028551;28;19992;-73
2024/01/29 10:58:33;;;;;;;;;;;5.30;99.90;;;;;;5031577;28;20103;-72
2024/01/29 11:01:01;;;;;;;;;;;5.50;99.90;;;;;;5037925;28;19943;-72
2024/01/29 11:03:27;;;;;;;;;;;5.60;99.90;;;;;;5029030;28;19922;-72
2024/01/29 11:05:56;;;;;;;;;;;5.80;99.90;;;;;;5038225;28;19961;-73
2024/01/29 11:08:25;;;;;;;;;;;6.00;99.90;;;;;;5038026;28;20244;-72
2024/01/29 11:10:52;;;;;;;;;;;6.10;99.90;;;;;;5031273;28;19956;-72
2024/01/29 11:13:19;;;;;;;;;;;6.40;99.90;;;;;;5031324;28;19921;-73
2024/01/29 11:15:46;;;;;;;;;;;6.50;99.90;;;;;;5030877;28;20175;-73
2024/01/29 11:18:15;;;;;;;;;;;6.70;99.90;;;;;;5035943;28;19985;-72
2024/01/29 11:20:41;;;;;;;;;;;6.80;99.90;;;;;;5028309;28;19976;-72
2024/01/29 11:23:10;;;;;;;;;;;7.00;99.90;;;;;;5028608;28;19963;-73
2024/01/29 11:25:37;;;;;;;;;;;7.10;99.90;;;;;;5029076;28;19984;-72
2024/01/29 11:28:07;;;;;;;;;;;7.30;99.90;;;;;;5031427;28;19989;-71
2024/01/29 11:30:34;;;;;;;;;;;7.50;99.90;;;;;;5029589;28;19953;-72
2024/01/29 11:33:11;;;;;;;;;;;7.70;99.90;;;;;;5036272;28;19921;-72
2024/01/29 11:35:39;;;;;;;;;;;7.90;99.90;;;;;;5041285;28;20142;-72
2024/01/29 11:38:06;;;;;;;;;;;8.10;99.90;;;;;;5027991;28;19957;-72
2024/01/29 11:40:34;;;;;;;;;;;8.20;99.90;;;;;;5029151;28;19976;-75
2024/01/29 11:43:01;;;;;;;;;;;8.40;99.90;;;;;;5028068;28;19922;-72
2024/01/29 11:45:31;;;;;;;;;;;8.50;99.90;;;;;;5028136;28;19997;-72
2024/01/29 11:47:58;;;;;;;;;;;8.70;99.90;;;;;;5031063;28;19921;-73
2024/01/29 11:50:25;;;;;;;;;;;8.80;99.90;;;;;;5027667;28;19922;-73
2024/01/29 11:52:53;;;;;;;;;;;9.00;99.90;;;;;;5027883;28;19961;-72
2024/01/29 11:55:21;;;;;;;;;;;9.10;99.90;;;;;;5027352;28;19936;-71
2024/01/29 11:57:51;;;;;;;;;;;9.20;99.90;;;;;;5030464;28;19927;-72
2024/01/29 12:00:19;;;;;;;;;;;9.40;99.90;;;;;;5030764;28;19925;-75
2024/01/29 12:02:48;;;;;;;;;;;9.40;99.90;;;;;;5030262;28;19959;-75
2024/01/29 12:05:16;;;;;;;;;;;9.50;99.90;;;;;;5022158;28;19984;-73
2024/01/29 12:07:42;;;;;;;;;;;9.60;99.90;;;;;;5035462;28;19960;-72
2024/01/29 12:10:10;;;;;;;;;;;9.70;99.90;;;;;;5033719;28;19943;-75
2024/01/29 12:12:37;;;;;;;;;;;9.80;99.90;;;;;;5029363;28;19960;-72
2024/01/29 12:15:04;;;;;;;;;;;9.90;99.90;;;;;;5032271;28;19920;-72
2024/01/29 12:17:31;;;;;;;;;;;9.90;99.90;;;;;;5027069;28;19929;-72
2024/01/29 12:19:58;;;;;;;;;;;9.80;99.90;;;;;;5026377;28;19922;-74
2024/01/29 12:22:25;;;;;;;;;;;9.80;99.90;;;;;;5028387;28;19985;-73
2024/01/29 12:24:51;;;;;;;;;;;9.90;99.90;;;;;;5030027;28;19921;-73
2024/01/29 12:27:19;;;;;;;;;;;9.90;99.90;;;;;;5029743;28;19961;-73
2024/01/29 12:29:46;;;;;;;;;;;10.00;99.90;;;;;;5032141;28;20173;-73
2024/01/29 12:32:14;;;;;;;;;;;10.10;99.90;;;;;;5026729;28;19922;-73
2024/01/29 12:34:43;;;;;;;;;;;10.20;99.90;;;;;;5029276;28;19929;-74
2024/01/29 12:37:17;;;;;;;;;;;10.30;99.90;;;;;;5026455;28;19936;-73
2024/01/29 12:39:44;;;;;;;;;;;10.40;99.90;;;;;;5032356;28;19957;-73
2024/01/29 12:42:14;;;;;;;;;;;10.50;99.90;;;;;;5031114;28;19928;-73
2024/01/29 12:44:42;;;;;;;;;;;10.60;99.90;;;;;;5031505;28;20187;-73
2024/01/29 12:47:12;;;;;;;;;;;10.70;99.90;;;;;;5031160;28;19988;-73
2024/01/29 12:49:39;;;;;;;;;;;10.80;99.90;;;;;;5030932;28;20175;-73
2024/01/29 12:52:06;;;;;;;;;;;10.80;99.90;;;;;;5031592;28;19957;-74
2024/01/29 12:54:33;;;;;;;;;;;10.80;99.90;;;;;;5026648;28;19921;-75
2024/01/29 12:57:00;;;;;;;;;;;10.90;99.90;;;;;;5025327;28;20211;-72
2024/01/29 12:59:26;;;;;;;;;;;10.90;99.90;;;;;;5028652;28;19921;-73
2024/01/29 13:01:54;;;;;;;;;;;11.10;99.90;;;;;;5030526;28;19928;-73
2024/01/29 13:04:21;;;;;;;;;;;11.20;99.90;;;;;;5029359;28;20227;-73
2024/01/29 13:06:48;;;;;;;;;;;11.20;99.90;;;;;;5029895;28;20177;-72
2024/01/29 13:09:15;;;;;;;;;;;11.20;99.90;;;;;;5029040;28;19980;-73
2024/01/29 13:11:41;;;;;;;;;;;11.30;99.90;;;;;;5027122;28;19935;-73
2024/01/29 13:14:09;;;;;;;;;;;11.30;99.90;;;;;;5026125;28;19968;-72
2024/01/29 13:16:37;;;;;;;;;;;11.40;99.90;;;;;;5026854;28;19921;-73
2024/01/29 13:19:05;;;;;;;;;;;11.50;99.90;;;;;;5027563;28;19929;-73
2024/01/29 13:21:33;;;;;;;;;;;11.50;99.90;;;;;;5027095;28;20178;-73
2024/01/29 13:24:01;;;;;;;;;;;11.60;99.90;;;;;;5029719;28;19928;-73
2024/01/29 13:26:29;;;;;;;;;;;11.60;99.90;;;;;;5041155;28;20202;-73
2024/01/29 13:28:55;;;;;;;;;;;11.70;99.90;;;;;;5042139;28;19921;-73
2024/01/29 13:31:22;;;;;;;;;;;11.70;99.90;;;;;;5031867;28;20092;-73
2024/01/29 13:33:49;;;;;;;;;;;11.70;99.90;;;;;;5042258;28;20206;-73
2024/01/29 13:36:17;;;;;;;;;;;11.80;99.90;;;;;;5042163;28;19921;-73
2024/01/29 13:38:44;;;;;;;;;;;11.80;99.90;;;;;;5032372;28;19952;-72
2024/01/29 13:41:10;;;;;;;;;;;11.90;99.90;;;;;;5025893;28;20161;-73
2024/01/29 13:43:37;;;;;;;;;;;12.00;99.90;;;;;;5026667;28;20100;-73
2024/01/29 13:46:04;;;;;;;;;;;12.00;99.90;;;;;;5025250;28;19988;-73
2024/01/29 13:48:31;;;;;;;;;;;11.90;99.90;;;;;;5026396;28;20225;-73
2024/01/29 13:50:57;;;;;;;;;;;11.90;99.90;;;;;;5032354;28;20111;-75
2024/01/29 13:53:26;;;;;;;;;;;11.80;99.90;;;;;;5026068;28;19953;-72
2024/01/29 13:55:52;;;;;;;;;;;11.70;99.90;;;;;;5033428;28;19921;-73
2024/01/29 13:58:19;;;;;;;;;;;11.70;99.90;;;;;;5025486;28;19993;-73
2024/01/29 14:00:46;;;;;;;;;;;11.60;99.90;;;;;;5041073;28;19952;-74
2024/01/29 14:03:13;;;;;;;;;;;11.50;99.90;;;;;;5042194;28;19935;-73
2024/01/29 14:05:39;;;;;;;;;;;11.50;99.90;;;;;;5041204;28;19928;-73
2024/01/29 14:08:06;;;;;;;;;;;11.40;99.90;;;;;;5041970;28;19988;-73
2024/01/29 14:10:35;;;;;;;;;;;11.30;99.90;;;;;;5040771;28;20138;-73
2024/01/29 14:13:03;;;;;;;;;;;11.20;99.90;;;;;;5038560;28;20219;-73
2024/01/29 14:15:30;;;;;;;;;;;11.10;99.90;;;;;;5032406;28;20149;-71
2024/01/29 14:17:57;;;;;;;;;;;10.90;99.90;;;;;;5041694;28;19949;-74
2024/01/29 14:20:24;;;;;;;;;;;10.80;99.90;;;;;;5041063;28;19925;-70